Time;durP1;ratioP1;P1;durP2;ratioP2;P2;SDS_P1;SDS_P2;PMS_P1;PMS_P2;Temp;Humidity;BMP_temperature;BMP_pressure;BME280_temperature;BME280_humidity;BME280_pressure;Samples;Min_cycle;Max_cycle;Signal;HPM_P1;HPM_P2
2020/09/18 00:00:49;;;;;;;25.5;22.75;;;;;;;14.16;86.38672;95797;;;;
2020/09/18 00:01:49;;;;;;;25.5;22.75;;;;;;;14.16;86.38672;95797;;;;
2020/09/18 00:02:50;;;;;;;25.5;22.75;;;;;;;14.16;86.38672;95797;;;;
2020/09/18 00:03:50;;;;;;;24.65;22;;;;;;;14.1;87.13867;95791.21;;;;
2020/09/18 00:04:51;;;;;;;24.65;22;;;;;;;14.1;87.13867;95791.21;;;;
2020/09/18 00:05:51;;;;;;;24.65;22;;;;;;;14.1;87.13867;95791.21;;;;
2020/09/18 00:06:52;;;;;;;24.65;22;;;;;;;14.1;87.13867;95791.21;;;;
2020/09/18 00:07:52;;;;;;;24.65;22;;;;;;;14.1;87.13867;95791.21;;;;
2020/09/18 00:08:53;;;;;;;24.65;22;;;;;;;14.1;87.13867;95791.21;;;;
2020/09/18 00:09:53;;;;;;;24.65;22;;;;;;;14.1;87.13867;95791.21;;;;
2020/09/18 00:10:54;;;;;;;24.65;22;;;;;;;14.1;87.13867;95791.21;;;;
2020/09/18 00:11:54;;;;;;;24.65;22;;;;;;;14.1;87.13867;95791.21;;;;
2020/09/18 00:12:55;;;;;;;24.65;22;;;;;;;14.1;87.13867;95791.21;;;;
2020/09/18 00:13:55;;;;;;;24.65;22;;;;;;;14.1;87.13867;95791.21;;;;
2020/09/18 00:14:56;;;;;;;24.2;21.7;;;;;;;13.96;87.55078;95792.56;;;;
2020/09/18 00:15:56;;;;;;;24.2;21.7;;;;;;;13.96;87.55078;95792.56;;;;
2020/09/18 00:16:57;;;;;;;24.2;21.7;;;;;;;13.96;87.55078;95792.56;;;;
2020/09/18 00:17:57;;;;;;;24.2;21.7;;;;;;;13.96;87.55078;95792.56;;;;
2020/09/18 00:18:58;;;;;;;24.2;21.7;;;;;;;13.96;87.55078;95792.56;;;;
2020/09/18 00:19:58;;;;;;;24.2;21.7;;;;;;;13.96;87.55078;95792.56;;;;
2020/09/18 00:20:59;;;;;;;24.2;21.7;;;;;;;13.96;87.55078;95792.56;;;;
2020/09/18 00:21:59;;;;;;;24.2;21.7;;;;;;;13.96;87.55078;95792.56;;;;
2020/09/18 00:23:00;;;;;;;24.2;21.7;;;;;;;13.96;87.55078;95792.56;;;;
2020/09/18 00:24:00;;;;;;;24.2;21.7;;;;;;;13.96;87.55078;95792.56;;;;
2020/09/18 00:25:01;;;;;;;25.05;22.4;;;;;;;13.91;87.92676;95796.13;;;;
2020/09/18 00:26:02;;;;;;;25.05;22.4;;;;;;;13.91;87.92676;95796.13;;;;
2020/09/18 00:27:02;;;;;;;25.05;22.4;;;;;;;13.91;87.92676;95796.13;;;;
2020/09/18 00:28:03;;;;;;;25.05;22.4;;;;;;;13.91;87.92676;95796.13;;;;
2020/09/18 00:29:03;;;;;;;25.05;22.4;;;;;;;13.91;87.92676;95796.13;;;;
2020/09/18 00:30:03;;;;;;;25.05;22.4;;;;;;;13.91;87.92676;95796.13;;;;
2020/09/18 00:31:04;;;;;;;25.05;22.4;;;;;;;13.91;87.92676;95796.13;;;;
2020/09/18 00:32:04;;;;;;;25.05;22.4;;;;;;;13.91;87.92676;95796.13;;;;
2020/09/18 00:33:05;;;;;;;25.05;22.4;;;;;;;13.91;87.92676;95796.13;;;;
2020/09/18 00:34:05;;;;;;;25.05;22.4;;;;;;;13.91;87.92676;95796.13;;;;
2020/09/18 00:35:06;;;;;;;25.05;22.4;;;;;;;13.91;87.92676;95796.13;;;;
2020/09/18 00:36:06;;;;;;;25;22.45001;;;;;;;13.8;88.71094;95785.21;;;;
2020/09/18 00:37:07;;;;;;;25;22.45001;;;;;;;13.8;88.71094;95785.21;;;;
2020/09/18 00:38:07;;;;;;;25;22.45001;;;;;;;13.8;88.71094;95785.21;;;;
2020/09/18 00:39:08;;;;;;;25;22.45001;;;;;;;13.8;88.71094;95785.21;;;;
2020/09/18 00:40:08;;;;;;;25;22.45001;;;;;;;13.8;88.71094;95785.21;;;;
2020/09/18 00:41:09;;;;;;;25;22.45001;;;;;;;13.8;88.71094;95785.21;;;;
2020/09/18 00:42:09;;;;;;;25;22.45001;;;;;;;13.8;88.71094;95785.21;;;;
2020/09/18 00:43:10;;;;;;;25;22.45001;;;;;;;13.8;88.71094;95785.21;;;;
2020/09/18 00:44:10;;;;;;;25;22.45001;;;;;;;13.8;88.71094;95785.21;;;;
2020/09/18 00:45:11;;;;;;;25;22.45001;;;;;;;13.8;88.71094;95785.21;;;;
2020/09/18 00:46:11;;;;;;;25.9;23.15;;;;;;;13.73;89.00684;95768.67;;;;
2020/09/18 00:47:12;;;;;;;25.9;23.15;;;;;;;13.73;89.00684;95768.67;;;;
2020/09/18 00:48:12;;;;;;;25.9;23.15;;;;;;;13.73;89.00684;95768.67;;;;
2020/09/18 00:49:13;;;;;;;25.9;23.15;;;;;;;13.73;89.00684;95768.67;;;;
2020/09/18 00:50:14;;;;;;;25.9;23.15;;;;;;;13.73;89.00684;95768.67;;;;
2020/09/18 00:51:14;;;;;;;25.9;23.15;;;;;;;13.73;89.00684;95768.67;;;;
2020/09/18 00:52:15;;;;;;;25.9;23.15;;;;;;;13.73;89.00684;95768.67;;;;
2020/09/18 00:53:16;;;;;;;25.9;23.15;;;;;;;13.73;89.00684;95768.67;;;;
2020/09/18 00:54:19;;;;;;;25.9;23.15;;;;;;;13.73;89.00684;95768.67;;;;
2020/09/18 00:55:22;;;;;;;25.9;23.15;;;;;;;13.73;89.00684;95768.67;;;;
2020/09/18 00:56:36;;;;;;;25.9;23.15;;;;;;;13.73;89.00684;95768.67;;;;
2020/09/18 00:57:40;;;;;;;25.4;22.75;;;;;;;13.59;89.33398;95765.03;;;;
2020/09/18 00:58:45;;;;;;;25.4;22.75;;;;;;;13.59;89.33398;95765.03;;;;
2020/09/18 00:59:46;;;;;;;25.4;22.75;;;;;;;13.59;89.33398;95765.03;;;;
2020/09/18 01:00:49;;;;;;;25.4;22.75;;;;;;;13.59;89.33398;95765.03;;;;
2020/09/18 01:01:51;;;;;;;25.4;22.75;;;;;;;13.59;89.33398;95765.03;;;;
2020/09/18 01:02:52;;;;;;;25.4;22.75;;;;;;;13.59;89.33398;95765.03;;;;
2020/09/18 01:03:53;;;;;;;25.4;22.75;;;;;;;13.59;89.33398;95765.03;;;;
2020/09/18 01:04:59;;;;;;;25.4;22.75;;;;;;;13.59;89.33398;95765.03;;;;
2020/09/18 01:06:01;;;;;;;25.4;22.75;;;;;;;13.59;89.33398;95765.03;;;;
2020/09/18 01:07:04;;;;;;;25.4;22.75;;;;;;;13.59;89.33398;95765.03;;;;
2020/09/18 01:08:08;;;;;;;24.4;21.9;;;;;;;13.53;89.92188;95755.66;;;;
2020/09/18 01:09:13;;;;;;;24.4;21.9;;;;;;;13.53;89.92188;95755.66;;;;
2020/09/18 01:10:23;;;;;;;24.4;21.9;;;;;;;13.53;89.92188;95755.66;;;;
2020/09/18 01:11:28;;;;;;;24.4;21.9;;;;;;;13.53;89.92188;95755.66;;;;
2020/09/18 01:12:32;;;;;;;24.4;21.9;;;;;;;13.53;89.92188;95755.66;;;;
2020/09/18 01:13:38;;;;;;;24.4;21.9;;;;;;;13.53;89.92188;95755.66;;;;
2020/09/18 01:14:42;;;;;;;24.4;21.9;;;;;;;13.53;89.92188;95755.66;;;;
2020/09/18 01:15:42;;;;;;;24.4;21.9;;;;;;;13.53;89.92188;95755.66;;;;
2020/09/18 01:16:43;;;;;;;24.4;21.9;;;;;;;13.53;89.92188;95755.66;;;;
2020/09/18 01:17:44;;;;;;;24.4;21.9;;;;;;;13.53;89.92188;95755.66;;;;
2020/09/18 01:18:45;;;;;;;25.3;22.7;;;;;;;13.42;90.1875;95759.66;;;;
2020/09/18 01:19:45;;;;;;;25.3;22.7;;;;;;;13.42;90.1875;95759.66;;;;
2020/09/18 01:20:50;;;;;;;25.3;22.7;;;;;;;13.42;90.1875;95759.66;;;;
2020/09/18 01:22:09;;;;;;;25.3;22.7;;;;;;;13.42;90.1875;95759.66;;;;
2020/09/18 01:23:26;;;;;;;25.3;22.7;;;;;;;13.42;90.1875;95759.66;;;;
2020/09/18 01:24:46;;;;;;;25.3;22.7;;;;;;;13.42;90.1875;95759.66;;;;
2020/09/18 01:25:59;;;;;;;25.3;22.7;;;;;;;13.42;90.1875;95759.66;;;;
2020/09/18 01:27:13;;;;;;;25.3;22.7;;;;;;;13.42;90.1875;95759.66;;;;
2020/09/18 01:28:34;;;;;;;25.3;22.7;;;;;;;13.42;90.1875;95759.66;;;;
2020/09/18 01:29:35;;;;;;;27.1;23.85;;;;;;;13.38;90.6709;95761.75;;;;
2020/09/18 01:30:36;;;;;;;27.1;23.85;;;;;;;13.38;90.6709;95761.75;;;;
2020/09/18 01:31:37;;;;;;;27.1;23.85;;;;;;;13.38;90.6709;95761.75;;;;
2020/09/18 01:32:39;;;;;;;27.1;23.85;;;;;;;13.38;90.6709;95761.75;;;;
2020/09/18 01:33:44;;;;;;;27.1;23.85;;;;;;;13.38;90.6709;95761.75;;;;
2020/09/18 01:34:46;;;;;;;27.1;23.85;;;;;;;13.38;90.6709;95761.75;;;;
2020/09/18 01:35:47;;;;;;;27.1;23.85;;;;;;;13.38;90.6709;95761.75;;;;
2020/09/18 01:36:54;;;;;;;27.1;23.85;;;;;;;13.38;90.6709;95761.75;;;;
2020/09/18 01:37:56;;;;;;;27.1;23.85;;;;;;;13.38;90.6709;95761.75;;;;
2020/09/18 01:38:57;;;;;;;27.1;23.85;;;;;;;13.38;90.6709;95761.75;;;;
2020/09/18 01:39:58;;;;;;;24.9;22.2;;;;;;;13.24;90.64355;95765.67;;;;
2020/09/18 01:40:59;;;;;;;24.9;22.2;;;;;;;13.24;90.64355;95765.67;;;;
2020/09/18 01:41:59;;;;;;;24.9;22.2;;;;;;;13.24;90.64355;95765.67;;;;
2020/09/18 01:43:00;;;;;;;24.9;22.2;;;;;;;13.24;90.64355;95765.67;;;;
2020/09/18 01:44:01;;;;;;;24.9;22.2;;;;;;;13.24;90.64355;95765.67;;;;
2020/09/18 01:45:01;;;;;;;24.9;22.2;;;;;;;13.24;90.64355;95765.67;;;;
2020/09/18 01:46:02;;;;;;;24.9;22.2;;;;;;;13.24;90.64355;95765.67;;;;
2020/09/18 01:47:04;;;;;;;24.9;22.2;;;;;;;13.24;90.64355;95765.67;;;;
2020/09/18 01:48:05;;;;;;;24.9;22.2;;;;;;;13.24;90.64355;95765.67;;;;
2020/09/18 01:49:05;;;;;;;24.9;22.2;;;;;;;13.24;90.64355;95765.67;;;;
2020/09/18 01:50:06;;;;;;;24.9;22.2;;;;;;;13.24;90.64355;95765.67;;;;
2020/09/18 01:51:06;;;;;;;28.3;24.95;;;;;;;13.2;90.87207;95764.12;;;;
2020/09/18 01:52:09;;;;;;;28.3;24.95;;;;;;;13.2;90.87207;95764.12;;;;
2020/09/18 01:53:09;;;;;;;28.3;24.95;;;;;;;13.2;90.87207;95764.12;;;;
2020/09/18 01:54:09;;;;;;;28.3;24.95;;;;;;;13.2;90.87207;95764.12;;;;
2020/09/18 01:55:10;;;;;;;28.3;24.95;;;;;;;13.2;90.87207;95764.12;;;;
2020/09/18 01:56:10;;;;;;;28.3;24.95;;;;;;;13.2;90.87207;95764.12;;;;
2020/09/18 01:57:11;;;;;;;28.3;24.95;;;;;;;13.2;90.87207;95764.12;;;;
2020/09/18 01:58:11;;;;;;;28.3;24.95;;;;;;;13.2;90.87207;95764.12;;;;
2020/09/18 01:59:12;;;;;;;28.3;24.95;;;;;;;13.2;90.87207;95764.12;;;;
2020/09/18 02:00:13;;;;;;;28.3;24.95;;;;;;;13.2;90.87207;95764.12;;;;
2020/09/18 02:01:14;;;;;;;24.95;22.25;;;;;;;13.09;91.53418;95764.54;;;;
2020/09/18 02:02:15;;;;;;;24.95;22.25;;;;;;;13.09;91.53418;95764.54;;;;
2020/09/18 02:03:15;;;;;;;24.95;22.25;;;;;;;13.09;91.53418;95764.54;;;;
2020/09/18 02:04:16;;;;;;;24.95;22.25;;;;;;;13.09;91.53418;95764.54;;;;
2020/09/18 02:05:16;;;;;;;24.95;22.25;;;;;;;13.09;91.53418;95764.54;;;;
2020/09/18 02:06:17;;;;;;;24.95;22.25;;;;;;;13.09;91.53418;95764.54;;;;
2020/09/18 02:07:17;;;;;;;24.95;22.25;;;;;;;13.09;91.53418;95764.54;;;;
2020/09/18 02:08:18;;;;;;;24.95;22.25;;;;;;;13.09;91.53418;95764.54;;;;
2020/09/18 02:09:18;;;;;;;24.95;22.25;;;;;;;13.09;91.53418;95764.54;;;;
2020/09/18 02:10:19;;;;;;;24.95;22.25;;;;;;;13.09;91.53418;95764.54;;;;
2020/09/18 02:11:20;;;;;;;24.95;22.25;;;;;;;13.09;91.53418;95764.54;;;;
2020/09/18 02:12:20;;;;;;;24.95;22.3;;;;;;;13.05;91.99707;95757.01;;;;
2020/09/18 02:13:21;;;;;;;24.95;22.3;;;;;;;13.05;91.99707;95757.01;;;;
2020/09/18 02:14:21;;;;;;;24.95;22.3;;;;;;;13.05;91.99707;95757.01;;;;
2020/09/18 02:15:22;;;;;;;24.95;22.3;;;;;;;13.05;91.99707;95757.01;;;;
2020/09/18 02:16:23;;;;;;;24.95;22.3;;;;;;;13.05;91.99707;95757.01;;;;
2020/09/18 02:17:23;;;;;;;24.95;22.3;;;;;;;13.05;91.99707;95757.01;;;;
2020/09/18 02:18:24;;;;;;;24.95;22.3;;;;;;;13.05;91.99707;95757.01;;;;
2020/09/18 02:19:24;;;;;;;24.95;22.3;;;;;;;13.05;91.99707;95757.01;;;;
2020/09/18 02:20:25;;;;;;;24.95;22.3;;;;;;;13.05;91.99707;95757.01;;;;
2020/09/18 02:21:26;;;;;;;24.95;22.3;;;;;;;13.05;91.99707;95757.01;;;;
2020/09/18 02:22:26;;;;;;;25.55;21.6;;;;;;;12.93;92.11035;95754.83;;;;
2020/09/18 02:23:27;;;;;;;25.55;21.6;;;;;;;12.93;92.11035;95754.83;;;;
2020/09/18 02:24:27;;;;;;;25.55;21.6;;;;;;;12.93;92.11035;95754.83;;;;
2020/09/18 02:25:28;;;;;;;25.55;21.6;;;;;;;12.93;92.11035;95754.83;;;;
2020/09/18 02:26:28;;;;;;;25.55;21.6;;;;;;;12.93;92.11035;95754.83;;;;
2020/09/18 02:27:29;;;;;;;25.55;21.6;;;;;;;12.93;92.11035;95754.83;;;;
2020/09/18 02:28:29;;;;;;;25.55;21.6;;;;;;;12.93;92.11035;95754.83;;;;
2020/09/18 02:29:30;;;;;;;25.55;21.6;;;;;;;12.93;92.11035;95754.83;;;;
2020/09/18 02:30:30;;;;;;;25.55;21.6;;;;;;;12.93;92.11035;95754.83;;;;
2020/09/18 02:31:31;;;;;;;25.55;21.6;;;;;;;12.93;92.11035;95754.83;;;;
2020/09/18 02:32:31;;;;;;;25.55;21.6;;;;;;;12.93;92.11035;95754.83;;;;
2020/09/18 02:33:32;;;;;;;23.65;21.25;;;;;;;12.89;92.32715;95757.72;;;;
2020/09/18 02:34:33;;;;;;;23.65;21.25;;;;;;;12.89;92.32715;95757.72;;;;
2020/09/18 02:35:33;;;;;;;23.65;21.25;;;;;;;12.89;92.32715;95757.72;;;;
2020/09/18 02:36:34;;;;;;;23.65;21.25;;;;;;;12.89;92.32715;95757.72;;;;
2020/09/18 02:37:34;;;;;;;23.65;21.25;;;;;;;12.89;92.32715;95757.72;;;;
2020/09/18 02:38:35;;;;;;;23.65;21.25;;;;;;;12.89;92.32715;95757.72;;;;
2020/09/18 02:39:35;;;;;;;23.65;21.25;;;;;;;12.89;92.32715;95757.72;;;;
2020/09/18 02:40:36;;;;;;;23.65;21.25;;;;;;;12.89;92.32715;95757.72;;;;
2020/09/18 02:41:36;;;;;;;23.65;21.25;;;;;;;12.89;92.32715;95757.72;;;;
2020/09/18 02:42:37;;;;;;;23.65;21.25;;;;;;;12.89;92.32715;95757.72;;;;
2020/09/18 02:43:37;;;;;;;25;22.35;;;;;;;12.76;92.48145;95757.56;;;;
2020/09/18 02:44:38;;;;;;;25;22.35;;;;;;;12.76;92.48145;95757.56;;;;
2020/09/18 02:45:38;;;;;;;25;22.35;;;;;;;12.76;92.48145;95757.56;;;;
2020/09/18 02:46:39;;;;;;;25;22.35;;;;;;;12.76;92.48145;95757.56;;;;
2020/09/18 02:47:39;;;;;;;25;22.35;;;;;;;12.76;92.48145;95757.56;;;;
2020/09/18 02:48:40;;;;;;;25;22.35;;;;;;;12.76;92.48145;95757.56;;;;
2020/09/18 02:49:41;;;;;;;25;22.35;;;;;;;12.76;92.48145;95757.56;;;;
2020/09/18 02:50:41;;;;;;;25;22.35;;;;;;;12.76;92.48145;95757.56;;;;
2020/09/18 02:51:42;;;;;;;25;22.35;;;;;;;12.76;92.48145;95757.56;;;;
2020/09/18 02:52:42;;;;;;;25;22.35;;;;;;;12.76;92.48145;95757.56;;;;
2020/09/18 02:53:43;;;;;;;25;22.35;;;;;;;12.76;92.48145;95757.56;;;;
2020/09/18 02:54:44;;;;;;;25.75;23.05;;;;;;;12.69;92.85254;95758.11;;;;
2020/09/18 02:55:44;;;;;;;25.75;23.05;;;;;;;12.69;92.85254;95758.11;;;;
2020/09/18 02:56:45;;;;;;;25.75;23.05;;;;;;;12.69;92.85254;95758.11;;;;
2020/09/18 02:57:45;;;;;;;25.75;23.05;;;;;;;12.69;92.85254;95758.11;;;;
2020/09/18 02:58:46;;;;;;;25.75;23.05;;;;;;;12.69;92.85254;95758.11;;;;
2020/09/18 02:59:46;;;;;;;25.75;23.05;;;;;;;12.69;92.85254;95758.11;;;;
2020/09/18 03:00:47;;;;;;;25.75;23.05;;;;;;;12.69;92.85254;95758.11;;;;
2020/09/18 03:01:47;;;;;;;25.75;23.05;;;;;;;12.69;92.85254;95758.11;;;;
2020/09/18 03:02:48;;;;;;;25.75;23.05;;;;;;;12.69;92.85254;95758.11;;;;
2020/09/18 03:03:48;;;;;;;25.75;23.05;;;;;;;12.69;92.85254;95758.11;;;;
2020/09/18 03:04:49;;;;;;;24.8;22.3;;;;;;;12.55;93.11133;95758.59;;;;
2020/09/18 03:05:49;;;;;;;24.8;22.3;;;;;;;12.55;93.11133;95758.59;;;;
2020/09/18 03:06:50;;;;;;;24.8;22.3;;;;;;;12.55;93.11133;95758.59;;;;
2020/09/18 03:07:50;;;;;;;24.8;22.3;;;;;;;12.55;93.11133;95758.59;;;;
2020/09/18 03:08:51;;;;;;;24.8;22.3;;;;;;;12.55;93.11133;95758.59;;;;
2020/09/18 03:09:51;;;;;;;24.8;22.3;;;;;;;12.55;93.11133;95758.59;;;;
2020/09/18 03:10:52;;;;;;;24.8;22.3;;;;;;;12.55;93.11133;95758.59;;;;
2020/09/18 03:11:52;;;;;;;24.8;22.3;;;;;;;12.55;93.11133;95758.59;;;;
2020/09/18 03:12:53;;;;;;;24.8;22.3;;;;;;;12.55;93.11133;95758.59;;;;
2020/09/18 03:13:54;;;;;;;24.8;22.3;;;;;;;12.55;93.11133;95758.59;;;;
2020/09/18 03:14:54;;;;;;;24.8;22.3;;;;;;;12.55;93.11133;95758.59;;;;
2020/09/18 03:15:55;;;;;;;24.2;21.6;;;;;;;12.62;93.49121;95760.12;;;;
2020/09/18 03:16:55;;;;;;;24.2;21.6;;;;;;;12.62;93.49121;95760.12;;;;
2020/09/18 03:17:56;;;;;;;24.2;21.6;;;;;;;12.62;93.49121;95760.12;;;;
2020/09/18 03:18:56;;;;;;;24.2;21.6;;;;;;;12.62;93.49121;95760.12;;;;
2020/09/18 03:19:57;;;;;;;24.2;21.6;;;;;;;12.62;93.49121;95760.12;;;;
2020/09/18 03:20:57;;;;;;;24.2;21.6;;;;;;;12.62;93.49121;95760.12;;;;
2020/09/18 03:21:58;;;;;;;24.2;21.6;;;;;;;12.62;93.49121;95760.12;;;;
2020/09/18 03:22:58;;;;;;;24.2;21.6;;;;;;;12.62;93.49121;95760.12;;;;
2020/09/18 03:23:58;;;;;;;24.2;21.6;;;;;;;12.62;93.49121;95760.12;;;;
2020/09/18 03:24:59;;;;;;;24.2;21.6;;;;;;;12.62;93.49121;95760.12;;;;
2020/09/18 03:25:59;;;;;;;24.2;21.6;;;;;;;12.62;93.49121;95760.12;;;;
2020/09/18 03:27:00;;;;;;;23.75;20;;;;;;;12.84;93.32129;95750.43;;;;
2020/09/18 03:28:00;;;;;;;23.75;20;;;;;;;12.84;93.32129;95750.43;;;;
2020/09/18 03:29:01;;;;;;;23.75;20;;;;;;;12.84;93.32129;95750.43;;;;
2020/09/18 03:30:02;;;;;;;23.75;20;;;;;;;12.84;93.32129;95750.43;;;;
2020/09/18 03:31:02;;;;;;;23.75;20;;;;;;;12.84;93.32129;95750.43;;;;
2020/09/18 03:32:02;;;;;;;23.75;20;;;;;;;12.84;93.32129;95750.43;;;;
2020/09/18 03:33:03;;;;;;;23.75;20;;;;;;;12.84;93.32129;95750.43;;;;
2020/09/18 03:34:03;;;;;;;23.75;20;;;;;;;12.84;93.32129;95750.43;;;;
2020/09/18 03:35:04;;;;;;;23.75;20;;;;;;;12.84;93.32129;95750.43;;;;
2020/09/18 03:36:05;;;;;;;23.75;20;;;;;;;12.84;93.32129;95750.43;;;;
2020/09/18 03:37:05;;;;;;;21.7;19.4;;;;;;;13.03;92.95605;95749.13;;;;
2020/09/18 03:38:06;;;;;;;21.7;19.4;;;;;;;13.03;92.95605;95749.13;;;;
2020/09/18 03:39:12;;;;;;;21.7;19.4;;;;;;;13.03;92.95605;95749.13;;;;
2020/09/18 03:40:12;;;;;;;21.7;19.4;;;;;;;13.03;92.95605;95749.13;;;;
2020/09/18 03:41:13;;;;;;;21.7;19.4;;;;;;;13.03;92.95605;95749.13;;;;
2020/09/18 03:42:37;;;;;;;21.7;19.4;;;;;;;13.03;92.95605;95749.13;;;;
2020/09/18 03:43:38;;;;;;;21.7;19.4;;;;;;;13.03;92.95605;95749.13;;;;
2020/09/18 03:44:38;;;;;;;21.7;19.4;;;;;;;13.03;92.95605;95749.13;;;;
2020/09/18 03:45:39;;;;;;;21.7;19.4;;;;;;;13.03;92.95605;95749.13;;;;
2020/09/18 03:46:44;;;;;;;21.7;19.4;;;;;;;13.03;92.95605;95749.13;;;;
2020/09/18 03:47:45;;;;;;;20.3;18.2;;;;;;;13.07;92.76074;95752.18;;;;
2020/09/18 03:48:45;;;;;;;20.3;18.2;;;;;;;13.07;92.76074;95752.18;;;;
2020/09/18 03:49:46;;;;;;;20.3;18.2;;;;;;;13.07;92.76074;95752.18;;;;
2020/09/18 03:50:52;;;;;;;20.3;18.2;;;;;;;13.07;92.76074;95752.18;;;;
2020/09/18 03:51:53;;;;;;;20.3;18.2;;;;;;;13.07;92.76074;95752.18;;;;
2020/09/18 03:53:00;;;;;;;20.3;18.2;;;;;;;13.07;92.76074;95752.18;;;;
2020/09/18 03:54:01;;;;;;;20.3;18.2;;;;;;;13.07;92.76074;95752.18;;;;
2020/09/18 03:55:12;;;;;;;20.3;18.2;;;;;;;13.07;92.76074;95752.18;;;;
2020/09/18 03:56:12;;;;;;;20.3;18.2;;;;;;;13.07;92.76074;95752.18;;;;
2020/09/18 03:57:18;;;;;;;20.3;18.2;;;;;;;13.07;92.76074;95752.18;;;;
2020/09/18 03:58:19;;;;;;;18.85;16.75;;;;;;;13.19;92.91504;95745.76;;;;
2020/09/18 03:59:29;;;;;;;18.85;16.75;;;;;;;13.19;92.91504;95745.76;;;;
2020/09/18 04:00:29;;;;;;;18.85;16.75;;;;;;;13.19;92.91504;95745.76;;;;
2020/09/18 04:01:38;;;;;;;18.85;16.75;;;;;;;13.19;92.91504;95745.76;;;;
2020/09/18 04:02:38;;;;;;;18.85;16.75;;;;;;;13.19;92.91504;95745.76;;;;
2020/09/18 04:03:43;;;;;;;18.85;16.75;;;;;;;13.19;92.91504;95745.76;;;;
2020/09/18 04:04:43;;;;;;;18.85;16.75;;;;;;;13.19;92.91504;95745.76;;;;
2020/09/18 04:06:00;;;;;;;18.85;16.75;;;;;;;13.19;92.91504;95745.76;;;;
2020/09/18 04:07:01;;;;;;;18.85;16.75;;;;;;;13.19;92.91504;95745.76;;;;
2020/09/18 04:08:13;;;;;;;18.85;16.75;;;;;;;13.19;92.91504;95745.76;;;;
2020/09/18 04:09:18;;;;;;;17.65;15.25;;;;;;;13.31;92.61816;95754.3;;;;
2020/09/18 04:10:20;;;;;;;17.65;15.25;;;;;;;13.31;92.61816;95754.3;;;;
2020/09/18 04:11:23;;;;;;;17.65;15.25;;;;;;;13.31;92.61816;95754.3;;;;
2020/09/18 04:12:23;;;;;;;17.65;15.25;;;;;;;13.31;92.61816;95754.3;;;;
2020/09/18 04:13:24;;;;;;;17.65;15.25;;;;;;;13.31;92.61816;95754.3;;;;
2020/09/18 04:14:26;;;;;;;17.65;15.25;;;;;;;13.31;92.61816;95754.3;;;;
2020/09/18 04:15:26;;;;;;;17.65;15.25;;;;;;;13.31;92.61816;95754.3;;;;
2020/09/18 04:16:27;;;;;;;17.65;15.25;;;;;;;13.31;92.61816;95754.3;;;;
2020/09/18 04:17:29;;;;;;;17.65;15.25;;;;;;;13.31;92.61816;95754.3;;;;
2020/09/18 04:18:30;;;;;;;17.65;15.25;;;;;;;13.31;92.61816;95754.3;;;;
2020/09/18 04:19:31;;;;;;;17.55;15.55;;;;;;;13.46;92.45898;95766.25;;;;
2020/09/18 04:20:33;;;;;;;17.55;15.55;;;;;;;13.46;92.45898;95766.25;;;;
2020/09/18 04:21:34;;;;;;;17.55;15.55;;;;;;;13.46;92.45898;95766.25;;;;
2020/09/18 04:22:34;;;;;;;17.55;15.55;;;;;;;13.46;92.45898;95766.25;;;;
2020/09/18 04:23:43;;;;;;;17.55;15.55;;;;;;;13.46;92.45898;95766.25;;;;
2020/09/18 04:24:56;;;;;;;17.55;15.55;;;;;;;13.46;92.45898;95766.25;;;;
2020/09/18 04:26:03;;;;;;;17.55;15.55;;;;;;;13.46;92.45898;95766.25;;;;
2020/09/18 04:27:07;;;;;;;17.55;15.55;;;;;;;13.46;92.45898;95766.25;;;;
2020/09/18 04:28:14;;;;;;;17.55;15.55;;;;;;;13.46;92.45898;95766.25;;;;
2020/09/18 04:29:24;;;;;;;17.55;15.55;;;;;;;13.46;92.45898;95766.25;;;;
2020/09/18 04:30:32;;;;;;;18.6;14.8;;;;;;;13.51;92.25391;95763.62;;;;
2020/09/18 04:31:35;;;;;;;18.6;14.8;;;;;;;13.51;92.25391;95763.62;;;;
2020/09/18 04:32:38;;;;;;;18.6;14.8;;;;;;;13.51;92.25391;95763.62;;;;
2020/09/18 04:33:39;;;;;;;18.6;14.8;;;;;;;13.51;92.25391;95763.62;;;;
2020/09/18 04:34:40;;;;;;;18.6;14.8;;;;;;;13.51;92.25391;95763.62;;;;
2020/09/18 04:35:42;;;;;;;18.6;14.8;;;;;;;13.51;92.25391;95763.62;;;;
2020/09/18 04:36:45;;;;;;;18.6;14.8;;;;;;;13.51;92.25391;95763.62;;;;
2020/09/18 04:37:57;;;;;;;18.6;14.8;;;;;;;13.51;92.25391;95763.62;;;;
2020/09/18 04:38:58;;;;;;;18.6;14.8;;;;;;;13.51;92.25391;95763.62;;;;
2020/09/18 04:40:01;;;;;;;18.6;14.8;;;;;;;13.51;92.25391;95763.62;;;;
2020/09/18 04:41:01;;;;;;;17.2;14.7;;;;;;;13.61;92.08105;95776.99;;;;
2020/09/18 04:42:17;;;;;;;17.2;14.7;;;;;;;13.61;92.08105;95776.99;;;;
2020/09/18 04:43:26;;;;;;;17.2;14.7;;;;;;;13.61;92.08105;95776.99;;;;
2020/09/18 04:44:26;;;;;;;17.2;14.7;;;;;;;13.61;92.08105;95776.99;;;;
2020/09/18 04:45:29;;;;;;;17.2;14.7;;;;;;;13.61;92.08105;95776.99;;;;
2020/09/18 04:46:37;;;;;;;17.2;14.7;;;;;;;13.61;92.08105;95776.99;;;;
2020/09/18 04:47:41;;;;;;;17.2;14.7;;;;;;;13.61;92.08105;95776.99;;;;
2020/09/18 04:48:44;;;;;;;17.2;14.7;;;;;;;13.61;92.08105;95776.99;;;;
2020/09/18 04:49:48;;;;;;;17.2;14.7;;;;;;;13.61;92.08105;95776.99;;;;
2020/09/18 04:50:57;;;;;;;17.2;14.7;;;;;;;13.61;92.08105;95776.99;;;;
2020/09/18 04:51:57;;;;;;;15.7;13.75;;;;;;;13.61;92.00586;95782.42;;;;
2020/09/18 04:52:58;;;;;;;15.7;13.75;;;;;;;13.61;92.00586;95782.42;;;;
2020/09/18 04:53:58;;;;;;;15.7;13.75;;;;;;;13.61;92.00586;95782.42;;;;
2020/09/18 04:54:59;;;;;;;15.7;13.75;;;;;;;13.61;92.00586;95782.42;;;;
2020/09/18 04:56:01;;;;;;;15.7;13.75;;;;;;;13.61;92.00586;95782.42;;;;
2020/09/18 04:57:02;;;;;;;15.7;13.75;;;;;;;13.61;92.00586;95782.42;;;;
2020/09/18 04:58:03;;;;;;;15.7;13.75;;;;;;;13.61;92.00586;95782.42;;;;
2020/09/18 04:59:05;;;;;;;15.7;13.75;;;;;;;13.61;92.00586;95782.42;;;;
2020/09/18 05:00:06;;;;;;;15.7;13.75;;;;;;;13.61;92.00586;95782.42;;;;
2020/09/18 05:01:06;;;;;;;15.7;13.75;;;;;;;13.61;92.00586;95782.42;;;;
2020/09/18 05:02:07;;;;;;;15.7;13.75;;;;;;;13.61;92.00586;95782.42;;;;
2020/09/18 05:03:07;;;;;;;16.25;13.25;;;;;;;13.63;92.07422;95781.23;;;;
2020/09/18 05:04:08;;;;;;;16.25;13.25;;;;;;;13.63;92.07422;95781.23;;;;
2020/09/18 05:05:08;;;;;;;16.25;13.25;;;;;;;13.63;92.07422;95781.23;;;;
2020/09/18 05:06:09;;;;;;;16.25;13.25;;;;;;;13.63;92.07422;95781.23;;;;
2020/09/18 05:07:09;;;;;;;16.25;13.25;;;;;;;13.63;92.07422;95781.23;;;;
2020/09/18 05:08:10;;;;;;;16.25;13.25;;;;;;;13.63;92.07422;95781.23;;;;
2020/09/18 05:09:10;;;;;;;16.25;13.25;;;;;;;13.63;92.07422;95781.23;;;;
2020/09/18 05:10:11;;;;;;;16.25;13.25;;;;;;;13.63;92.07422;95781.23;;;;
2020/09/18 05:11:11;;;;;;;16.25;13.25;;;;;;;13.63;92.07422;95781.23;;;;
2020/09/18 05:12:14;;;;;;;16.25;13.25;;;;;;;13.63;92.07422;95781.23;;;;
2020/09/18 05:13:14;;;;;;;14.5;12.95;;;;;;;13.59;91.96973;95792.27;;;;
2020/09/18 05:14:14;;;;;;;14.5;12.95;;;;;;;13.59;91.96973;95792.27;;;;
2020/09/18 05:15:15;;;;;;;14.5;12.95;;;;;;;13.59;91.96973;95792.27;;;;
2020/09/18 05:16:17;;;;;;;14.5;12.95;;;;;;;13.59;91.96973;95792.27;;;;
2020/09/18 05:17:18;;;;;;;14.5;12.95;;;;;;;13.59;91.96973;95792.27;;;;
2020/09/18 05:18:28;;;;;;;14.5;12.95;;;;;;;13.59;91.96973;95792.27;;;;
2020/09/18 05:19:29;;;;;;;14.5;12.95;;;;;;;13.59;91.96973;95792.27;;;;
2020/09/18 05:20:29;;;;;;;14.5;12.95;;;;;;;13.59;91.96973;95792.27;;;;
2020/09/18 05:21:30;;;;;;;14.5;12.95;;;;;;;13.59;91.96973;95792.27;;;;
2020/09/18 05:22:40;;;;;;;14.5;12.95;;;;;;;13.59;91.96973;95792.27;;;;
2020/09/18 05:23:41;;;;;;;17.55;13.45;;;;;;;13.65;92.00488;95797.96;;;;
2020/09/18 05:24:42;;;;;;;17.55;13.45;;;;;;;13.65;92.00488;95797.96;;;;
2020/09/18 05:25:42;;;;;;;17.55;13.45;;;;;;;13.65;92.00488;95797.96;;;;
2020/09/18 05:26:44;;;;;;;17.55;13.45;;;;;;;13.65;92.00488;95797.96;;;;
2020/09/18 05:27:44;;;;;;;17.55;13.45;;;;;;;13.65;92.00488;95797.96;;;;
2020/09/18 05:28:52;;;;;;;17.55;13.45;;;;;;;13.65;92.00488;95797.96;;;;
2020/09/18 05:29:52;;;;;;;17.55;13.45;;;;;;;13.65;92.00488;95797.96;;;;
2020/09/18 05:31:00;;;;;;;17.55;13.45;;;;;;;13.65;92.00488;95797.96;;;;
2020/09/18 05:32:01;;;;;;;17.55;13.45;;;;;;;13.65;92.00488;95797.96;;;;
2020/09/18 05:33:01;;;;;;;17.55;13.45;;;;;;;13.65;92.00488;95797.96;;;;
2020/09/18 05:34:02;;;;;;;17.55;13.45;;;;;;;13.65;92.00488;95797.96;;;;
2020/09/18 05:35:03;;;;;;;15.8;12.6;;;;;;;13.7;91.76855;95806.75;;;;
2020/09/18 05:36:04;;;;;;;15.8;12.6;;;;;;;13.7;91.76855;95806.75;;;;
2020/09/18 05:37:16;;;;;;;15.8;12.6;;;;;;;13.7;91.76855;95806.75;;;;
2020/09/18 05:38:16;;;;;;;15.8;12.6;;;;;;;13.7;91.76855;95806.75;;;;
2020/09/18 05:39:18;;;;;;;15.8;12.6;;;;;;;13.7;91.76855;95806.75;;;;
2020/09/18 05:40:18;;;;;;;15.8;12.6;;;;;;;13.7;91.76855;95806.75;;;;
2020/09/18 05:41:19;;;;;;;15.8;12.6;;;;;;;13.7;91.76855;95806.75;;;;
2020/09/18 05:42:32;;;;;;;15.8;12.6;;;;;;;13.7;91.76855;95806.75;;;;
2020/09/18 05:43:32;;;;;;;15.8;12.6;;;;;;;13.7;91.76855;95806.75;;;;
2020/09/18 05:44:33;;;;;;;15.8;12.6;;;;;;;13.7;91.76855;95806.75;;;;
2020/09/18 05:45:33;;;;;;;14.1;12;;;;;;;13.82;91.56836;95809.28;;;;
2020/09/18 05:46:34;;;;;;;14.1;12;;;;;;;13.82;91.56836;95809.28;;;;
2020/09/18 05:47:34;;;;;;;14.1;12;;;;;;;13.82;91.56836;95809.28;;;;
2020/09/18 05:48:52;;;;;;;14.1;12;;;;;;;13.82;91.56836;95809.28;;;;